sensor_id;sensor_type;location;lat;lon;timestamp;temperature;humidity
11838;DHT22;5978;51.020;6.764;2023-03-18T00:00:33;11.40;99.90
11838;DHT22;5978;51.020;6.764;2023-03-18T00:02:59;11.30;99.90
11838;DHT22;5978;51.020;6.764;2023-03-18T00:05:24;11.30;99.90
11838;DHT22;5978;51.020;6.764;2023-03-18T00:07:50;11.30;99.90
11838;DHT22;5978;51.020;6.764;2023-03-18T00:10:16;11.20;99.90
11838;DHT22;5978;51.020;6.764;2023-03-18T00:12:42;11.30;99.90
11838;DHT22;5978;51.020;6.764;2023-03-18T00:15:10;11.30;99.90
11838;DHT22;5978;51.020;6.764;2023-03-18T00:17:37;11.30;99.90
11838;DHT22;5978;51.020;6.764;2023-03-18T00:20:05;11.30;99.90
11838;DHT22;5978;51.020;6.764;2023-03-18T00:22:32;11.30;99.90
11838;DHT22;5978;51.020;6.764;2023-03-18T00:24:58;11.30;99.90
11838;DHT22;5978;51.020;6.764;2023-03-18T00:27:24;11.30;99.90
11838;DHT22;5978;51.020;6.764;2023-03-18T00:29:49;11.40;99.90
11838;DHT22;5978;51.020;6.764;2023-03-18T00:32:16;11.40;99.90
11838;DHT22;5978;51.020;6.764;2023-03-18T00:34:41;11.30;99.90
11838;DHT22;5978;51.020;6.764;2023-03-18T00:37:07;11.20;99.90
11838;DHT22;5978;51.020;6.764;2023-03-18T00:39:33;11.20;99.90
11838;DHT22;5978;51.020;6.764;2023-03-18T00:41:59;11.20;99.90
11838;DHT22;5978;51.020;6.764;2023-03-18T00:44:32;11.20;99.90
11838;DHT22;5978;51.020;6.764;2023-03-18T00:46:57;11.30;99.90
11838;DHT22;5978;51.020;6.764;2023-03-18T00:49:23;11.30;99.90
11838;DHT22;5978;51.020;6.764;2023-03-18T00:51:49;11.30;99.90
11838;DHT22;5978;51.020;6.764;2023-03-18T00:54:16;11.30;99.90
11838;DHT22;5978;51.020;6.764;2023-03-18T00:56:44;11.40;99.90
11838;DHT22;5978;51.020;6.764;2023-03-18T00:59:09;11.30;99.90
11838;DHT22;5978;51.020;6.764;2023-03-18T01:01:36;11.40;99.90
11838;DHT22;5978;51.020;6.764;2023-03-18T01:04:02;11.40;99.90
11838;DHT22;5978;51.020;6.764;2023-03-18T01:06:31;11.30;99.90
11838;DHT22;5978;51.020;6.764;2023-03-18T01:08:57;11.30;99.90
11838;DHT22;5978;51.020;6.764;2023-03-18T01:11:24;11.30;99.90
11838;DHT22;5978;51.020;6.764;2023-03-18T01:13:50;11.30;99.90
11838;DHT22;5978;51.020;6.764;2023-03-18T01:16:17;11.30;99.90
11838;DHT22;5978;51.020;6.764;2023-03-18T01:18:44;11.30;99.90
11838;DHT22;5978;51.020;6.764;2023-03-18T01:21:09;11.20;99.90
11838;DHT22;5978;51.020;6.764;2023-03-18T01:23:36;11.20;99.90
11838;DHT22;5978;51.020;6.764;2023-03-18T01:26:02;11.10;99.90
11838;DHT22;5978;51.020;6.764;2023-03-18T01:28:28;11.20;99.90
11838;DHT22;5978;51.020;6.764;2023-03-18T01:30:54;11.20;99.90
11838;DHT22;5978;51.020;6.764;2023-03-18T01:33:22;11.20;99.90
11838;DHT22;5978;51.020;6.764;2023-03-18T01:35:56;11.20;99.90
11838;DHT22;5978;51.020;6.764;2023-03-18T01:38:23;11.20;99.90
11838;DHT22;5978;51.020;6.764;2023-03-18T01:40:50;11.10;99.90
11838;DHT22;5978;51.020;6.764;2023-03-18T01:43:22;11.10;99.90
11838;DHT22;5978;51.020;6.764;2023-03-18T01:45:56;11.20;99.90
11838;DHT22;5978;51.020;6.764;2023-03-18T01:48:27;11.10;99.90
11838;DHT22;5978;51.020;6.764;2023-03-18T01:51:01;11.10;99.90
11838;DHT22;5978;51.020;6.764;2023-03-18T01:53:31;11.10;99.90
11838;DHT22;5978;51.020;6.764;2023-03-18T01:56:00;11.10;99.90
11838;DHT22;5978;51.020;6.764;2023-03-18T01:58:39;11.10;99.90
11838;DHT22;5978;51.020;6.764;2023-03-18T02:01:20;11.00;99.90
11838;DHT22;5978;51.020;6.764;2023-03-18T02:03:48;11.10;99.90
11838;DHT22;5978;51.020;6.764;2023-03-18T02:06:15;11.10;99.90
11838;DHT22;5978;51.020;6.764;2023-03-18T02:08:40;11.00;99.90
11838;DHT22;5978;51.020;6.764;2023-03-18T02:11:07;11.00;99.90
11838;DHT22;5978;51.020;6.764;2023-03-18T02:13:38;11.00;99.90
11838;DHT22;5978;51.020;6.764;2023-03-18T02:16:09;11.00;99.90
11838;DHT22;5978;51.020;6.764;2023-03-18T02:18:44;11.00;99.90
11838;DHT22;5978;51.020;6.764;2023-03-18T02:21:52;10.90;99.90
11838;DHT22;5978;51.020;6.764;2023-03-18T02:24:53;10.90;99.90
11838;DHT22;5978;51.020;6.764;2023-03-18T02:27:25;10.80;99.90
11838;DHT22;5978;51.020;6.764;2023-03-18T02:30:26;10.70;99.90
11838;DHT22;5978;51.020;6.764;2023-03-18T02:32:54;10.60;99.90
11838;DHT22;5978;51.020;6.764;2023-03-18T02:35:21;10.60;99.90
11838;DHT22;5978;51.020;6.764;2023-03-18T02:37:46;10.50;99.90
11838;DHT22;5978;51.020;6.764;2023-03-18T02:40:29;10.40;99.90
11838;DHT22;5978;51.020;6.764;2023-03-18T02:42:55;10.40;99.90
11838;DHT22;5978;51.020;6.764;2023-03-18T02:47:57;10.30;99.90
11838;DHT22;5978;51.020;6.764;2023-03-18T02:50:24;10.30;99.90
11838;DHT22;5978;51.020;6.764;2023-03-18T02:52:49;10.30;99.90
11838;DHT22;5978;51.020;6.764;2023-03-18T02:55:15;10.30;99.90
11838;DHT22;5978;51.020;6.764;2023-03-18T02:57:41;10.20;99.90
11838;DHT22;5978;51.020;6.764;2023-03-18T03:00:07;10.20;99.90
11838;DHT22;5978;51.020;6.764;2023-03-18T03:02:33;10.20;99.90
11838;DHT22;5978;51.020;6.764;2023-03-18T03:04:59;10.10;99.90
11838;DHT22;5978;51.020;6.764;2023-03-18T03:07:26;10.10;99.90
11838;DHT22;5978;51.020;6.764;2023-03-18T03:09:52;10.10;99.90
11838;DHT22;5978;51.020;6.764;2023-03-18T03:12:18;10.00;99.90
11838;DHT22;5978;51.020;6.764;2023-03-18T03:14:44;10.00;99.90
11838;DHT22;5978;51.020;6.764;2023-03-18T03:17:10;9.90;99.90
11838;DHT22;5978;51.020;6.764;2023-03-18T03:19:35;9.90;99.90
11838;DHT22;5978;51.020;6.764;2023-03-18T03:22:01;9.80;99.90
11838;DHT22;5978;51.020;6.764;2023-03-18T03:24:27;9.80;99.90
11838;DHT22;5978;51.020;6.764;2023-03-18T03:26:52;9.70;99.90
11838;DHT22;5978;51.020;6.764;2023-03-18T03:29:18;9.70;99.90
11838;DHT22;5978;51.020;6.764;2023-03-18T03:31:44;9.60;99.90
11838;DHT22;5978;51.020;6.764;2023-03-18T03:34:10;9.60;99.90
11838;DHT22;5978;51.020;6.764;2023-03-18T03:36:36;9.60;99.90
11838;DHT22;5978;51.020;6.764;2023-03-18T03:39:02;9.50;99.90
11838;DHT22;5978;51.020;6.764;2023-03-18T03:41:28;9.50;99.90
11838;DHT22;5978;51.020;6.764;2023-03-18T03:43:54;9.50;99.90
11838;DHT22;5978;51.020;6.764;2023-03-18T03:46:19;9.40;99.90
11838;DHT22;5978;51.020;6.764;2023-03-18T03:48:46;9.40;99.90
11838;DHT22;5978;51.020;6.764;2023-03-18T03:51:12;9.40;99.90
11838;DHT22;5978;51.020;6.764;2023-03-18T03:53:39;9.50;99.90
11838;DHT22;5978;51.020;6.764;2023-03-18T03:56:05;9.50;99.90
11838;DHT22;5978;51.020;6.764;2023-03-18T03:58:33;9.50;99.90
11838;DHT22;5978;51.020;6.764;2023-03-18T04:00:59;9.40;99.90
11838;DHT22;5978;51.020;6.764;2023-03-18T04:03:25;9.40;99.90
11838;DHT22;5978;51.020;6.764;2023-03-18T04:05:51;9.40;99.90
11838;DHT22;5978;51.020;6.764;2023-03-18T04:08:17;9.40;99.90
11838;DHT22;5978;51.020;6.764;2023-03-18T04:10:42;9.40;99.90
11838;DHT22;5978;51.020;6.764;2023-03-18T04:13:08;9.40;99.90
11838;DHT22;5978;51.020;6.764;2023-03-18T04:15:34;9.40;99.90
11838;DHT22;5978;51.020;6.764;2023-03-18T04:18:00;9.40;99.90
11838;DHT22;5978;51.020;6.764;2023-03-18T04:20:35;9.40;99.90
11838;DHT22;5978;51.020;6.764;2023-03-18T04:23:01;9.40;99.90
11838;DHT22;5978;51.020;6.764;2023-03-18T04:25:27;9.40;99.90
11838;DHT22;5978;51.020;6.764;2023-03-18T04:27:52;9.40;99.90
11838;DHT22;5978;51.020;6.764;2023-03-18T04:30:18;9.40;99.90
11838;DHT22;5978;51.020;6.764;2023-03-18T04:32:45;9.40;99.90
11838;DHT22;5978;51.020;6.764;2023-03-18T04:35:10;9.40;99.90
11838;DHT22;5978;51.020;6.764;2023-03-18T04:37:36;9.50;99.90
11838;DHT22;5978;51.020;6.764;2023-03-18T04:40:03;9.50;99.90
11838;DHT22;5978;51.020;6.764;2023-03-18T04:42:30;9.50;99.90
11838;DHT22;5978;51.020;6.764;2023-03-18T04:44:55;9.50;99.90
11838;DHT22;5978;51.020;6.764;2023-03-18T04:47:22;9.50;99.90
11838;DHT22;5978;51.020;6.764;2023-03-18T04:49:47;9.50;99.90
11838;DHT22;5978;51.020;6.764;2023-03-18T04:52:13;9.50;99.90
11838;DHT22;5978;51.020;6.764;2023-03-18T04:54:39;9.50;99.90
11838;DHT22;5978;51.020;6.764;2023-03-18T04:57:05;9.50;99.90
11838;DHT22;5978;51.020;6.764;2023-03-18T04:59:31;9.60;99.90
11838;DHT22;5978;51.020;6.764;2023-03-18T05:01:57;9.60;99.90
11838;DHT22;5978;51.020;6.764;2023-03-18T05:04:24;9.50;99.90
11838;DHT22;5978;51.020;6.764;2023-03-18T05:06:50;9.60;99.90
11838;DHT22;5978;51.020;6.764;2023-03-18T05:09:16;9.60;99.90
11838;DHT22;5978;51.020;6.764;2023-03-18T05:11:43;9.50;99.90
11838;DHT22;5978;51.020;6.764;2023-03-18T05:14:08;9.50;99.90
11838;DHT22;5978;51.020;6.764;2023-03-18T05:16:34;9.60;99.90
11838;DHT22;5978;51.020;6.764;2023-03-18T05:19:01;9.60;99.90
11838;DHT22;5978;51.020;6.764;2023-03-18T05:21:27;9.50;99.90
11838;DHT22;5978;51.020;6.764;2023-03-18T05:23:52;9.60;99.90
11838;DHT22;5978;51.020;6.764;2023-03-18T05:26:18;9.50;99.90
11838;DHT22;5978;51.020;6.764;2023-03-18T05:28:43;9.50;99.90
11838;DHT22;5978;51.020;6.764;2023-03-18T05:31:09;9.50;99.90
11838;DHT22;5978;51.020;6.764;2023-03-18T05:33:35;9.50;99.90
11838;DHT22;5978;51.020;6.764;2023-03-18T05:36:00;9.50;99.90
11838;DHT22;5978;51.020;6.764;2023-03-18T05:38:27;9.50;99.90
11838;DHT22;5978;51.020;6.764;2023-03-18T05:40:53;9.50;99.90
11838;DHT22;5978;51.020;6.764;2023-03-18T05:43:18;9.50;99.90
11838;DHT22;5978;51.020;6.764;2023-03-18T05:45:44;9.60;99.90
11838;DHT22;5978;51.020;6.764;2023-03-18T05:48:09;9.60;99.90
11838;DHT22;5978;51.020;6.764;2023-03-18T05:50:41;9.70;99.90
11838;DHT22;5978;51.020;6.764;2023-03-18T05:53:07;9.70;99.90
11838;DHT22;5978;51.020;6.764;2023-03-18T05:55:34;9.80;99.90
11838;DHT22;5978;51.020;6.764;2023-03-18T05:58:00;9.80;99.90
11838;DHT22;5978;51.020;6.764;2023-03-18T06:00:27;9.80;99.90
11838;DHT22;5978;51.020;6.764;2023-03-18T06:02:55;9.80;99.90
11838;DHT22;5978;51.020;6.764;2023-03-18T06:05:21;9.90;99.90
11838;DHT22;5978;51.020;6.764;2023-03-18T06:07:47;9.90;99.90
11838;DHT22;5978;51.020;6.764;2023-03-18T06:10:13;9.80;99.90
11838;DHT22;5978;51.020;6.764;2023-03-18T06:12:40;9.90;99.90
11838;DHT22;5978;51.020;6.764;2023-03-18T06:15:10;9.90;99.90
11838;DHT22;5978;51.020;6.764;2023-03-18T06:17:37;9.90;99.90
11838;DHT22;5978;51.020;6.764;2023-03-18T06:20:04;9.90;99.90
11838;DHT22;5978;51.020;6.764;2023-03-18T06:22:30;9.90;99.90
11838;DHT22;5978;51.020;6.764;2023-03-18T06:24:57;9.90;99.90
11838;DHT22;5978;51.020;6.764;2023-03-18T06:27:23;10.00;99.90
11838;DHT22;5978;51.020;6.764;2023-03-18T06:29:49;10.00;99.90
11838;DHT22;5978;51.020;6.764;2023-03-18T06:32:15;10.00;99.90
11838;DHT22;5978;51.020;6.764;2023-03-18T06:34:41;9.90;99.90
11838;DHT22;5978;51.020;6.764;2023-03-18T06:37:07;10.00;99.90
11838;DHT22;5978;51.020;6.764;2023-03-18T06:39:34;10.00;99.90
11838;DHT22;5978;51.020;6.764;2023-03-18T06:42:00;10.00;99.90
11838;DHT22;5978;51.020;6.764;2023-03-18T06:44:26;10.10;99.90
11838;DHT22;5978;51.020;6.764;2023-03-18T06:46:51;10.10;99.90
11838;DHT22;5978;51.020;6.764;2023-03-18T06:49:18;10.10;99.90
11838;DHT22;5978;51.020;6.764;2023-03-18T06:51:44;10.20;99.90
11838;DHT22;5978;51.020;6.764;2023-03-18T06:54:09;10.30;99.90
11838;DHT22;5978;51.020;6.764;2023-03-18T06:56:36;10.40;99.90
11838;DHT22;5978;51.020;6.764;2023-03-18T06:59:04;10.50;99.90
11838;DHT22;5978;51.020;6.764;2023-03-18T07:01:30;10.60;99.90
11838;DHT22;5978;51.020;6.764;2023-03-18T07:03:57;10.80;99.90
11838;DHT22;5978;51.020;6.764;2023-03-18T07:06:23;10.90;99.90
11838;DHT22;5978;51.020;6.764;2023-03-18T07:08:48;11.00;99.90
11838;DHT22;5978;51.020;6.764;2023-03-18T07:11:14;11.20;99.90
11838;DHT22;5978;51.020;6.764;2023-03-18T07:13:40;11.30;99.90
11838;DHT22;5978;51.020;6.764;2023-03-18T07:16:06;11.30;99.90
11838;DHT22;5978;51.020;6.764;2023-03-18T07:18:32;11.40;99.90
11838;DHT22;5978;51.020;6.764;2023-03-18T07:20:57;11.50;99.90
11838;DHT22;5978;51.020;6.764;2023-03-18T07:23:24;11.60;99.90
11838;DHT22;5978;51.020;6.764;2023-03-18T07:25:49;11.70;99.90
11838;DHT22;5978;51.020;6.764;2023-03-18T07:28:15;11.80;99.90
11838;DHT22;5978;51.020;6.764;2023-03-18T07:30:41;11.90;99.90
11838;DHT22;5978;51.020;6.764;2023-03-18T07:33:07;12.10;99.90
11838;DHT22;5978;51.020;6.764;2023-03-18T07:35:33;12.20;99.90
11838;DHT22;5978;51.020;6.764;2023-03-18T07:37:59;12.30;99.90
11838;DHT22;5978;51.020;6.764;2023-03-18T07:40:24;12.50;99.90
11838;DHT22;5978;51.020;6.764;2023-03-18T07:42:50;12.70;99.90
11838;DHT22;5978;51.020;6.764;2023-03-18T07:45:16;12.90;99.90
11838;DHT22;5978;51.020;6.764;2023-03-18T07:47:42;13.10;99.90
11838;DHT22;5978;51.020;6.764;2023-03-18T07:50:08;13.10;99.90
11838;DHT22;5978;51.020;6.764;2023-03-18T07:52:34;13.30;99.90
11838;DHT22;5978;51.020;6.764;2023-03-18T07:55:00;13.50;99.90
11838;DHT22;5978;51.020;6.764;2023-03-18T07:57:26;13.50;99.90
11838;DHT22;5978;51.020;6.764;2023-03-18T07:59:51;13.50;99.90
11838;DHT22;5978;51.020;6.764;2023-03-18T08:02:17;13.60;99.90
11838;DHT22;5978;51.020;6.764;2023-03-18T08:04:43;13.70;99.90
11838;DHT22;5978;51.020;6.764;2023-03-18T08:07:10;13.80;99.90
11838;DHT22;5978;51.020;6.764;2023-03-18T08:09:37;13.90;99.90
11838;DHT22;5978;51.020;6.764;2023-03-18T08:12:02;14.00;99.90
11838;DHT22;5978;51.020;6.764;2023-03-18T08:14:28;14.00;99.90
11838;DHT22;5978;51.020;6.764;2023-03-18T08:16:54;14.10;99.90
11838;DHT22;5978;51.020;6.764;2023-03-18T08:19:19;14.20;99.90
11838;DHT22;5978;51.020;6.764;2023-03-18T08:21:46;14.30;99.90
11838;DHT22;5978;51.020;6.764;2023-03-18T08:24:12;14.30;99.90
11838;DHT22;5978;51.020;6.764;2023-03-18T08:26:38;14.30;99.90
11838;DHT22;5978;51.020;6.764;2023-03-18T08:29:04;14.50;99.90
11838;DHT22;5978;51.020;6.764;2023-03-18T08:31:30;14.70;99.90
11838;DHT22;5978;51.020;6.764;2023-03-18T08:33:56;14.80;99.90
11838;DHT22;5978;51.020;6.764;2023-03-18T08:36:23;15.10;99.90
11838;DHT22;5978;51.020;6.764;2023-03-18T08:38:49;15.20;99.90
11838;DHT22;5978;51.020;6.764;2023-03-18T08:41:15;15.20;99.90
11838;DHT22;5978;51.020;6.764;2023-03-18T08:43:41;15.20;99.90
11838;DHT22;5978;51.020;6.764;2023-03-18T08:46:07;15.20;99.90
11838;DHT22;5978;51.020;6.764;2023-03-18T08:48:33;15.40;99.90
11838;DHT22;5978;51.020;6.764;2023-03-18T08:51:04;15.50;99.90
11838;DHT22;5978;51.020;6.764;2023-03-18T08:53:32;15.50;99.90
11838;DHT22;5978;51.020;6.764;2023-03-18T08:55:58;15.60;99.90
11838;DHT22;5978;51.020;6.764;2023-03-18T08:58:24;15.70;99.90
11838;DHT22;5978;51.020;6.764;2023-03-18T09:00:49;15.70;99.90
11838;DHT22;5978;51.020;6.764;2023-03-18T09:03:15;15.70;99.90
11838;DHT22;5978;51.020;6.764;2023-03-18T09:05:40;15.70;99.90
11838;DHT22;5978;51.020;6.764;2023-03-18T09:08:06;15.70;99.90
11838;DHT22;5978;51.020;6.764;2023-03-18T09:10:32;15.60;99.90
11838;DHT22;5978;51.020;6.764;2023-03-18T09:12:58;15.50;99.90
11838;DHT22;5978;51.020;6.764;2023-03-18T09:15:25;15.60;99.90
11838;DHT22;5978;51.020;6.764;2023-03-18T09:17:52;15.50;99.90
11838;DHT22;5978;51.020;6.764;2023-03-18T09:20:17;15.60;99.90
11838;DHT22;5978;51.020;6.764;2023-03-18T09:22:45;15.60;99.90
11838;DHT22;5978;51.020;6.764;2023-03-18T09:25:10;15.60;99.90
11838;DHT22;5978;51.020;6.764;2023-03-18T09:27:36;15.80;99.90
11838;DHT22;5978;51.020;6.764;2023-03-18T09:30:03;16.10;99.90
11838;DHT22;5978;51.020;6.764;2023-03-18T09:32:29;16.30;99.90
11838;DHT22;5978;51.020;6.764;2023-03-18T09:34:55;16.40;99.90
11838;DHT22;5978;51.020;6.764;2023-03-18T09:37:21;16.40;99.90
11838;DHT22;5978;51.020;6.764;2023-03-18T09:39:47;16.40;99.90
11838;DHT22;5978;51.020;6.764;2023-03-18T09:44:41;16.60;99.90
11838;DHT22;5978;51.020;6.764;2023-03-18T09:50:20;16.90;99.90
11838;DHT22;5978;51.020;6.764;2023-03-18T09:55:55;16.80;99.90
11838;DHT22;5978;51.020;6.764;2023-03-18T09:58:31;16.70;99.90
11838;DHT22;5978;51.020;6.764;2023-03-18T10:01:02;16.70;99.90
11838;DHT22;5978;51.020;6.764;2023-03-18T10:03:43;16.70;99.90
11838;DHT22;5978;51.020;6.764;2023-03-18T10:06:19;17.00;99.90
11838;DHT22;5978;51.020;6.764;2023-03-18T10:19:45;17.50;99.90
11838;DHT22;5978;51.020;6.764;2023-03-18T10:33:23;18.10;99.90
11838;DHT22;5978;51.020;6.764;2023-03-18T10:36:18;18.20;99.90
11838;DHT22;5978;51.020;6.764;2023-03-18T10:38:51;18.40;99.90
11838;DHT22;5978;51.020;6.764;2023-03-18T10:41:24;18.60;99.90
11838;DHT22;5978;51.020;6.764;2023-03-18T10:43:54;19.00;99.90
11838;DHT22;5978;51.020;6.764;2023-03-18T10:46:20;19.70;99.90
11838;DHT22;5978;51.020;6.764;2023-03-18T10:48:54;20.00;99.90
11838;DHT22;5978;51.020;6.764;2023-03-18T10:51:53;20.60;99.90
11838;DHT22;5978;51.020;6.764;2023-03-18T10:56:57;21.50;99.90
11838;DHT22;5978;51.020;6.764;2023-03-18T10:59:25;21.90;99.90
11838;DHT22;5978;51.020;6.764;2023-03-18T11:02:04;22.70;99.90
11838;DHT22;5978;51.020;6.764;2023-03-18T11:04:43;23.30;99.90
11838;DHT22;5978;51.020;6.764;2023-03-18T11:07:16;23.00;95.20
11838;DHT22;5978;51.020;6.764;2023-03-18T11:09:43;23.00;94.50
11838;DHT22;5978;51.020;6.764;2023-03-18T11:12:18;23.70;94.40
11838;DHT22;5978;51.020;6.764;2023-03-18T11:14:48;24.30;93.30
11838;DHT22;5978;51.020;6.764;2023-03-18T11:17:26;24.50;91.50
11838;DHT22;5978;51.020;6.764;2023-03-18T11:22:24;24.10;82.30
11838;DHT22;5978;51.020;6.764;2023-03-18T11:27:42;22.60;89.90
11838;DHT22;5978;51.020;6.764;2023-03-18T11:30:24;22.50;90.10
11838;DHT22;5978;51.020;6.764;2023-03-18T11:33:14;22.60;90.70
11838;DHT22;5978;51.020;6.764;2023-03-18T11:38:35;22.30;93.40
11838;DHT22;5978;51.020;6.764;2023-03-18T11:43:34;20.80;94.50
11838;DHT22;5978;51.020;6.764;2023-03-18T11:46:04;20.50;99.00
11838;DHT22;5978;51.020;6.764;2023-03-18T11:48:34;20.60;99.90
11838;DHT22;5978;51.020;6.764;2023-03-18T11:54:17;21.50;98.60
11838;DHT22;5978;51.020;6.764;2023-03-18T11:57:21;21.90;99.10
11838;DHT22;5978;51.020;6.764;2023-03-18T12:03:27;21.00;99.90
11838;DHT22;5978;51.020;6.764;2023-03-18T12:06:14;21.10;99.90
11838;DHT22;5978;51.020;6.764;2023-03-18T12:17:24;20.90;98.00
11838;DHT22;5978;51.020;6.764;2023-03-18T12:25:30;21.20;98.60
11838;DHT22;5978;51.020;6.764;2023-03-18T12:31:08;21.30;99.90
11838;DHT22;5978;51.020;6.764;2023-03-18T12:33:50;21.30;99.90
11838;DHT22;5978;51.020;6.764;2023-03-18T12:38:54;21.00;98.30
11838;DHT22;5978;51.020;6.764;2023-03-18T12:42:01;20.90;96.60
11838;DHT22;5978;51.020;6.764;2023-03-18T12:44:55;21.20;97.20
11838;DHT22;5978;51.020;6.764;2023-03-18T12:47:26;21.70;99.00
11838;DHT22;5978;51.020;6.764;2023-03-18T12:50:05;21.70;94.50
11838;DHT22;5978;51.020;6.764;2023-03-18T12:55:47;20.60;97.40
11838;DHT22;5978;51.020;6.764;2023-03-18T12:58:17;20.00;99.90
11838;DHT22;5978;51.020;6.764;2023-03-18T13:01:05;19.90;99.90
11838;DHT22;5978;51.020;6.764;2023-03-18T13:03:41;20.20;99.90
11838;DHT22;5978;51.020;6.764;2023-03-18T13:14:42;19.40;99.90
11838;DHT22;5978;51.020;6.764;2023-03-18T13:17:29;18.90;99.90
11838;DHT22;5978;51.020;6.764;2023-03-18T13:20:01;18.60;99.90
11838;DHT22;5978;51.020;6.764;2023-03-18T13:27:48;18.00;99.90
11838;DHT22;5978;51.020;6.764;2023-03-18T13:33:17;17.80;99.90
11838;DHT22;5978;51.020;6.764;2023-03-18T13:35:58;17.60;99.90
11838;DHT22;5978;51.020;6.764;2023-03-18T13:44:17;17.40;99.90
11838;DHT22;5978;51.020;6.764;2023-03-18T13:47:01;17.40;99.90
11838;DHT22;5978;51.020;6.764;2023-03-18T13:49:30;17.40;99.90
11838;DHT22;5978;51.020;6.764;2023-03-18T13:52:00;17.30;99.90
11838;DHT22;5978;51.020;6.764;2023-03-18T13:54:36;17.30;99.90
11838;DHT22;5978;51.020;6.764;2023-03-18T13:59:49;17.30;99.90
11838;DHT22;5978;51.020;6.764;2023-03-18T14:03:00;17.30;99.90
11838;DHT22;5978;51.020;6.764;2023-03-18T14:05:33;17.40;99.90
11838;DHT22;5978;51.020;6.764;2023-03-18T14:08:17;17.50;99.90
11838;DHT22;5978;51.020;6.764;2023-03-18T14:14:04;17.80;99.90
11838;DHT22;5978;51.020;6.764;2023-03-18T14:21:29;18.10;99.90
11838;DHT22;5978;51.020;6.764;2023-03-18T14:24:02;18.00;99.90
11838;DHT22;5978;51.020;6.764;2023-03-18T14:26:34;18.10;99.90
11838;DHT22;5978;51.020;6.764;2023-03-18T14:39:32;19.30;99.90
11838;DHT22;5978;51.020;6.764;2023-03-18T14:42:03;19.70;99.90
11838;DHT22;5978;51.020;6.764;2023-03-18T14:44:40;20.40;99.90
11838;DHT22;5978;51.020;6.764;2023-03-18T14:47:21;21.30;99.90
11838;DHT22;5978;51.020;6.764;2023-03-18T14:50:19;23.50;99.90
11838;DHT22;5978;51.020;6.764;2023-03-18T14:52:58;23.60;99.60
11838;DHT22;5978;51.020;6.764;2023-03-18T14:55:30;23.10;99.20
11838;DHT22;5978;51.020;6.764;2023-03-18T14:57:57;22.80;97.40
11838;DHT22;5978;51.020;6.764;2023-03-18T15:00:22;23.60;96.80
11838;DHT22;5978;51.020;6.764;2023-03-18T15:03:02;25.60;91.20
11838;DHT22;5978;51.020;6.764;2023-03-18T15:05:38;27.70;81.80
11838;DHT22;5978;51.020;6.764;2023-03-18T15:08:26;29.60;71.50
11838;DHT22;5978;51.020;6.764;2023-03-18T15:10:53;30.70;63.40
11838;DHT22;5978;51.020;6.764;2023-03-18T15:13:20;30.10;58.40
11838;DHT22;5978;51.020;6.764;2023-03-18T15:15:47;28.10;58.90
11838;DHT22;5978;51.020;6.764;2023-03-18T15:20:54;25.30;65.90
11838;DHT22;5978;51.020;6.764;2023-03-18T15:23:30;23.60;66.50
11838;DHT22;5978;51.020;6.764;2023-03-18T15:25:56;22.10;70.60
11838;DHT22;5978;51.020;6.764;2023-03-18T15:28:23;21.30;77.10
11838;DHT22;5978;51.020;6.764;2023-03-18T15:30:51;20.90;85.50
11838;DHT22;5978;51.020;6.764;2023-03-18T15:33:33;21.60;90.20
11838;DHT22;5978;51.020;6.764;2023-03-18T15:36:04;22.90;82.80
11838;DHT22;5978;51.020;6.764;2023-03-18T15:38:30;23.40;75.90
11838;DHT22;5978;51.020;6.764;2023-03-18T15:41:22;24.30;75.30
11838;DHT22;5978;51.020;6.764;2023-03-18T15:43:50;25.00;71.60
11838;DHT22;5978;51.020;6.764;2023-03-18T15:46:24;25.50;69.20
11838;DHT22;5978;51.020;6.764;2023-03-18T15:48:53;25.10;70.50
11838;DHT22;5978;51.020;6.764;2023-03-18T15:51:34;24.60;68.50
11838;DHT22;5978;51.020;6.764;2023-03-18T15:54:23;23.40;71.30
11838;DHT22;5978;51.020;6.764;2023-03-18T15:56:53;23.10;74.50
11838;DHT22;5978;51.020;6.764;2023-03-18T15:59:38;23.10;77.60
11838;DHT22;5978;51.020;6.764;2023-03-18T16:02:13;24.20;75.90
11838;DHT22;5978;51.020;6.764;2023-03-18T16:04:39;25.00;72.90
11838;DHT22;5978;51.020;6.764;2023-03-18T16:07:15;24.90;71.00
11838;DHT22;5978;51.020;6.764;2023-03-18T16:09:41;24.90;70.50
11838;DHT22;5978;51.020;6.764;2023-03-18T16:12:18;24.20;71.60
11838;DHT22;5978;51.020;6.764;2023-03-18T16:14:47;23.30;74.70
11838;DHT22;5978;51.020;6.764;2023-03-18T16:17:14;22.50;74.60
11838;DHT22;5978;51.020;6.764;2023-03-18T16:19:41;21.50;76.30
11838;DHT22;5978;51.020;6.764;2023-03-18T16:22:08;20.40;79.70
11838;DHT22;5978;51.020;6.764;2023-03-18T16:24:34;21.00;83.30
11838;DHT22;5978;51.020;6.764;2023-03-18T16:26:59;21.10;81.80
11838;DHT22;5978;51.020;6.764;2023-03-18T16:29:30;20.50;83.40
11838;DHT22;5978;51.020;6.764;2023-03-18T16:31:56;19.80;90.70
11838;DHT22;5978;51.020;6.764;2023-03-18T16:34:22;19.10;95.90
11838;DHT22;5978;51.020;6.764;2023-03-18T16:36:49;18.70;99.90
11838;DHT22;5978;51.020;6.764;2023-03-18T16:39:25;18.50;99.90
11838;DHT22;5978;51.020;6.764;2023-03-18T16:41:53;18.30;99.90
11838;DHT22;5978;51.020;6.764;2023-03-18T16:44:20;18.20;99.90
11838;DHT22;5978;51.020;6.764;2023-03-18T16:46:52;18.00;99.90
11838;DHT22;5978;51.020;6.764;2023-03-18T16:49:28;17.90;99.90
11838;DHT22;5978;51.020;6.764;2023-03-18T16:51:55;17.70;99.90
11838;DHT22;5978;51.020;6.764;2023-03-18T16:54:30;17.50;99.90
11838;DHT22;5978;51.020;6.764;2023-03-18T16:56:59;17.30;99.90
11838;DHT22;5978;51.020;6.764;2023-03-18T16:59:29;17.30;99.90
11838;DHT22;5978;51.020;6.764;2023-03-18T17:01:55;17.10;99.90
11838;DHT22;5978;51.020;6.764;2023-03-18T17:04:25;17.10;99.90
11838;DHT22;5978;51.020;6.764;2023-03-18T17:06:52;16.90;99.90
11838;DHT22;5978;51.020;6.764;2023-03-18T17:09:19;16.90;99.90
11838;DHT22;5978;51.020;6.764;2023-03-18T17:11:45;16.80;99.90
11838;DHT22;5978;51.020;6.764;2023-03-18T17:14:30;16.70;99.90
11838;DHT22;5978;51.020;6.764;2023-03-18T17:16:58;16.50;99.90
11838;DHT22;5978;51.020;6.764;2023-03-18T17:19:26;16.40;99.90
11838;DHT22;5978;51.020;6.764;2023-03-18T17:21:52;16.30;99.90
11838;DHT22;5978;51.020;6.764;2023-03-18T17:24:18;16.10;99.90
11838;DHT22;5978;51.020;6.764;2023-03-18T17:26:44;16.00;99.90
11838;DHT22;5978;51.020;6.764;2023-03-18T17:29:21;15.90;99.90
11838;DHT22;5978;51.020;6.764;2023-03-18T17:31:48;15.90;99.90
11838;DHT22;5978;51.020;6.764;2023-03-18T17:34:14;15.80;99.90
11838;DHT22;5978;51.020;6.764;2023-03-18T17:36:40;15.70;99.90
11838;DHT22;5978;51.020;6.764;2023-03-18T17:39:06;15.60;99.90
11838;DHT22;5978;51.020;6.764;2023-03-18T17:41:31;15.50;99.90
11838;DHT22;5978;51.020;6.764;2023-03-18T17:43:57;15.40;99.90
11838;DHT22;5978;51.020;6.764;2023-03-18T17:46:22;15.40;99.90
11838;DHT22;5978;51.020;6.764;2023-03-18T17:48:48;15.30;99.90
11838;DHT22;5978;51.020;6.764;2023-03-18T17:51:18;15.20;99.90
11838;DHT22;5978;51.020;6.764;2023-03-18T17:53:52;15.10;99.90
11838;DHT22;5978;51.020;6.764;2023-03-18T17:56:19;15.00;99.90
11838;DHT22;5978;51.020;6.764;2023-03-18T17:58:49;15.00;99.90
11838;DHT22;5978;51.020;6.764;2023-03-18T18:01:26;14.90;99.90
11838;DHT22;5978;51.020;6.764;2023-03-18T18:03:57;14.80;99.90
11838;DHT22;5978;51.020;6.764;2023-03-18T18:06:26;14.70;99.90